createdAt,value
2022-08-05T00:00:17.221Z,2.35
2022-08-05T00:02:51.042Z,1.85
2022-08-05T00:06:01.720Z,2.22
2022-08-05T00:08:34.181Z,2.15
2022-08-05T00:11:00.955Z,1.88
2022-08-05T00:13:38.775Z,2.00
2022-08-05T00:16:10.965Z,2.30
2022-08-05T00:18:42.342Z,2.05
2022-08-05T00:21:09.640Z,1.88
2022-08-05T00:23:46.681Z,1.88
2022-08-05T00:26:22.750Z,2.40
2022-08-05T00:28:51.211Z,2.25
2022-08-05T00:31:53.156Z,2.28
2022-08-05T00:34:55.197Z,2.47
2022-08-05T00:37:12.621Z,1.92
2022-08-05T00:39:57.239Z,2.13
2022-08-05T00:42:33.805Z,1.80
2022-08-05T00:45:01.626Z,2.13
2022-08-05T00:47:53.208Z,2.35
2022-08-05T00:50:16.418Z,2.03
2022-08-05T00:52:45.420Z,2.35
2022-08-05T00:55:14.011Z,2.20
2022-08-05T00:57:57.854Z,1.83
2022-08-05T01:00:29.037Z,2.25
2022-08-05T01:02:59.887Z,1.95
2022-08-05T01:05:27.725Z,1.33
2022-08-05T01:08:40.391Z,2.05
2022-08-05T01:10:53.341Z,1.48
2022-08-05T01:13:58.241Z,1.35
2022-08-05T01:16:39.081Z,2.33
2022-08-05T01:19:16.131Z,2.90
2022-08-05T01:22:04.332Z,1.95
2022-08-05T01:24:47.518Z,1.25
2022-08-05T01:27:23.499Z,2.33
2022-08-05T01:29:56.176Z,2.42
2022-08-05T01:32:27.960Z,2.35
2022-08-05T01:34:59.104Z,1.80
2022-08-05T01:37:44.296Z,1.27
2022-08-05T01:40:17.938Z,1.50
2022-08-05T01:42:46.980Z,2.20
2022-08-05T01:45:16.400Z,1.90
2022-08-05T01:47:46.427Z,1.30
2022-08-05T01:50:28.859Z,2.38
2022-08-05T01:53:01.438Z,1.25
2022-08-05T01:55:32.501Z,1.83
2022-08-05T01:58:10.382Z,2.20
2022-08-05T02:00:46.457Z,2.22
2022-08-05T02:03:34.442Z,1.95
2022-08-05T02:06:23.937Z,2.63
2022-08-05T02:08:58.164Z,1.73
2022-08-05T02:11:52.357Z,2.35
2022-08-05T02:14:47.003Z,1.63
2022-08-05T02:20:20.716Z,1.67
2022-08-05T02:23:01.460Z,1.50
2022-08-05T02:25:50.264Z,1.83
2022-08-05T02:28:29.279Z,1.40
2022-08-05T02:31:22.676Z,2.03
2022-08-05T02:33:59.401Z,2.55
2022-08-05T02:36:31.353Z,1.60
2022-08-05T02:39:01.580Z,1.88
2022-08-05T02:41:43.286Z,1.60
2022-08-05T02:44:19.535Z,2.13
2022-08-05T02:46:58.692Z,1.88
2022-08-05T02:49:35.855Z,2.17
2022-08-05T02:52:08.659Z,2.08
2022-08-05T02:54:41.276Z,1.88
2022-08-05T02:58:11.928Z,1.55
2022-08-05T03:00:02.543Z,2.10
2022-08-05T03:02:34.830Z,2.08
2022-08-05T03:05:02.119Z,1.90
2022-08-05T03:07:59.299Z,2.15
2022-08-05T03:10:21.844Z,2.13
2022-08-05T03:15:24.381Z,2.38
2022-08-05T03:17:57.684Z,2.92
2022-08-05T03:20:27.448Z,1.90
2022-08-05T03:22:57.951Z,2.75
2022-08-05T03:25:32.630Z,2.17
2022-08-05T03:28:08.296Z,2.30
2022-08-05T03:30:38.193Z,2.08
2022-08-05T03:33:06.374Z,2.58
2022-08-05T03:35:40.746Z,1.92
2022-08-05T03:38:11.834Z,2.40
2022-08-05T03:40:48.465Z,2.35
2022-08-05T03:44:09.121Z,1.88
2022-08-05T03:46:05.639Z,1.90
2022-08-05T03:48:36.794Z,2.00
2022-08-05T03:52:36.872Z,1.73
2022-08-05T03:55:06.918Z,2.03
2022-08-05T03:57:29.062Z,2.25
2022-08-05T04:00:11.770Z,2.00
2022-08-05T04:02:57.532Z,1.45
2022-08-05T04:05:33.829Z,2.20
2022-08-05T04:08:14.614Z,2.47
2022-08-05T04:10:57.439Z,2.13
2022-08-05T04:13:27.731Z,2.28
2022-08-05T04:16:14.294Z,2.53
2022-08-05T04:18:41.583Z,2.88
2022-08-05T04:21:11.005Z,2.58
2022-08-05T04:24:04.910Z,1.90
2022-08-05T04:26:32.323Z,1.60
2022-08-05T04:29:00.683Z,2.75
2022-08-05T04:31:39.448Z,2.55
2022-08-05T04:34:31.960Z,2.95
2022-08-05T04:36:53.893Z,2.22
2022-08-05T04:39:22.929Z,2.92
2022-08-05T04:41:51.125Z,2.55
2022-08-05T04:44:29.627Z,2.75
2022-08-05T04:46:59.006Z,2.45
2022-08-05T04:49:38.388Z,2.60
2022-08-05T04:52:15.253Z,2.60
2022-08-05T04:54:42.500Z,2.10
2022-08-05T04:57:09.586Z,2.45
2022-08-05T04:59:39.178Z,2.75
2022-08-05T05:02:37.593Z,3.15
2022-08-05T05:05:02.780Z,2.85
2022-08-05T05:07:32.770Z,2.88
2022-08-05T05:10:06.376Z,2.60
2022-08-05T05:12:36.709Z,2.88
2022-08-05T05:15:10.591Z,2.33
2022-08-05T05:17:55.922Z,3.13
2022-08-05T05:20:28.789Z,3.53
2022-08-05T05:23:04.189Z,2.92
2022-08-05T05:25:40.948Z,2.47
2022-08-05T05:28:09.310Z,2.78
2022-08-05T05:30:37.177Z,2.80
2022-08-05T05:33:16.302Z,2.85
2022-08-05T05:35:46.657Z,2.65
2022-08-05T05:38:14.500Z,2.08
2022-08-05T05:40:49.752Z,2.28
2022-08-05T05:43:27.646Z,2.10
2022-08-05T05:46:13.792Z,2.13
2022-08-05T05:48:44.290Z,2.25
2022-08-05T05:51:15.885Z,2.70
2022-08-05T05:53:54.167Z,2.35
2022-08-05T05:56:32.656Z,2.13
2022-08-05T05:59:07.452Z,2.00
2022-08-05T06:01:40.337Z,2.03
2022-08-05T06:04:14.555Z,1.92
2022-08-05T06:06:47.280Z,2.25
2022-08-05T06:09:24.890Z,1.77
2022-08-05T06:12:01.146Z,1.55
2022-08-05T06:14:30.765Z,1.98
2022-08-05T06:16:58.834Z,1.80
2022-08-05T06:19:34.673Z,2.10
2022-08-05T06:22:06.935Z,1.83
2022-08-05T06:24:36.248Z,2.15
2022-08-05T06:27:05.572Z,1.92
2022-08-05T06:30:04.615Z,1.45
2022-08-05T06:32:40.220Z,1.45
2022-08-05T06:35:15.445Z,1.30
2022-08-05T06:37:57.561Z,1.73
2022-08-05T06:40:27.881Z,1.38
2022-08-05T06:43:00.163Z,1.02
2022-08-05T06:46:03.444Z,1.13
2022-08-05T06:48:52.907Z,1.20
2022-08-05T06:51:09.480Z,1.20
2022-08-05T06:53:39.083Z,1.00
2022-08-05T06:56:06.814Z,1.00
2022-08-05T06:58:53.341Z,1.10
2022-08-05T07:01:23.168Z,0.98
2022-08-05T07:03:56.031Z,1.08
2022-08-05T07:06:28.878Z,0.80
2022-08-05T07:08:59.098Z,1.65
2022-08-05T07:11:28.646Z,1.50
2022-08-05T07:14:20.721Z,1.13
2022-08-05T07:17:59.792Z,1.08
2022-08-05T07:22:38.687Z,1.02
2022-08-05T07:25:23.686Z,0.82
2022-08-05T07:28:05.392Z,0.70
2022-08-05T07:30:39.075Z,0.85
2022-08-05T07:33:15.946Z,0.90
2022-08-05T07:36:02.709Z,0.70
2022-08-05T07:38:35.662Z,1.00
2022-08-05T07:42:07.698Z,0.60
2022-08-05T07:44:04.337Z,0.70
2022-08-05T07:46:33.783Z,0.50
2022-08-05T07:49:06.341Z,0.40
2022-08-05T07:51:48.546Z,0.35
2022-08-05T07:54:33.615Z,0.70
2022-08-05T07:57:16.854Z,0.95
2022-08-05T07:59:53.885Z,0.25
2022-08-05T08:02:31.293Z,0.60
2022-08-05T08:05:16.598Z,0.77
2022-08-05T08:07:59.006Z,0.55
2022-08-05T08:10:26.846Z,0.75
2022-08-05T08:12:53.895Z,0.70
2022-08-05T08:16:33.797Z,0.60
2022-08-05T08:18:13.966Z,0.90
2022-08-05T08:20:59.872Z,0.30
2022-08-05T08:24:04.003Z,0.60
2022-08-05T08:26:15.081Z,0.40
2022-08-05T08:28:55.206Z,0.47
2022-08-05T08:31:27.038Z,0.60
2022-08-05T08:33:56.695Z,0.40
2022-08-05T08:36:38.733Z,0.50
2022-08-05T08:39:15.725Z,0.40
2022-08-05T08:41:52.512Z,0.70
2022-08-05T08:45:23.885Z,0.47
2022-08-05T08:48:06.111Z,0.30
2022-08-05T08:50:31.930Z,0.60
2022-08-05T08:53:11.933Z,0.73
2022-08-05T08:56:04.312Z,0.70
2022-08-05T08:58:37.508Z,0.63
2022-08-05T09:03:54.440Z,0.60
2022-08-05T09:06:29.306Z,0.60
2022-08-05T09:09:01.469Z,0.40
2022-08-05T09:11:51.071Z,0.57
2022-08-05T09:14:58.978Z,0.60
2022-08-05T09:17:08.215Z,0.60
2022-08-05T09:20:01.434Z,0.50
2022-08-05T09:22:31.538Z,0.50
2022-08-05T09:25:13.876Z,0.50
2022-08-05T09:28:04.345Z,0.63
2022-08-05T09:30:35.680Z,0.52
2022-08-05T09:33:06.450Z,0.60
2022-08-05T09:35:37.949Z,0.40
2022-08-05T09:38:16.987Z,0.40
2022-08-05T09:40:52.221Z,0.40
2022-08-05T09:43:41.453Z,0.22
2022-08-05T09:46:30.721Z,0.60
2022-08-05T09:49:08.301Z,0.40
2022-08-05T09:51:49.977Z,0.57
2022-08-05T09:54:29.636Z,0.40
2022-08-05T09:57:01.603Z,0.60
2022-08-05T09:59:35.137Z,0.57
2022-08-05T10:02:04.608Z,0.43
2022-08-05T10:04:38.594Z,0.65
2022-08-05T10:07:19.848Z,0.43
2022-08-05T10:10:14.093Z,0.35
2022-08-05T10:12:49.351Z,0.40
2022-08-05T10:15:38.947Z,0.43
2022-08-05T10:18:16.874Z,0.57
2022-08-05T10:20:52.983Z,0.63
2022-08-05T10:23:55.246Z,0.40
2022-08-05T10:26:13.863Z,0.50
2022-08-05T10:28:46.367Z,0.45
2022-08-05T10:32:47.845Z,0.40
2022-08-05T10:34:07.183Z,0.32
2022-08-05T10:36:40.891Z,0.45
2022-08-05T10:39:24.413Z,0.40
2022-08-05T10:42:11.372Z,0.30
2022-08-05T10:44:43.195Z,0.28
2022-08-05T10:47:26.830Z,0.10
2022-08-05T10:50:28.075Z,0.25
2022-08-05T10:53:00.987Z,0.52
2022-08-05T10:55:32.918Z,0.32
2022-08-05T10:58:18.111Z,0.30
2022-08-05T11:00:48.005Z,0.17
2022-08-05T11:03:23.424Z,0.40
2022-08-05T11:06:05.923Z,0.30
2022-08-05T11:08:37.268Z,0.57
2022-08-05T11:11:44.426Z,0.35
2022-08-05T11:17:59.385Z,0.50
2022-08-05T11:20:41.446Z,0.40
2022-08-05T11:23:33.588Z,0.43
2022-08-05T11:26:28.905Z,0.28
2022-08-05T11:29:11.979Z,0.10
2022-08-05T11:31:58.329Z,0.50
2022-08-05T11:34:39.383Z,0.35
2022-08-05T11:38:26.147Z,0.50
2022-08-05T11:39:55.459Z,0.40
2022-08-05T11:42:28.445Z,0.40
2022-08-05T11:45:14.434Z,0.47
2022-08-05T11:47:54.852Z,0.38
2022-08-05T11:50:25.208Z,0.57
2022-08-05T11:53:09.816Z,0.30
2022-08-05T11:55:37.194Z,0.65
2022-08-05T11:58:11.307Z,0.30
2022-08-05T12:00:41.252Z,0.40
2022-08-05T12:03:28.480Z,0.45
2022-08-05T12:06:10.027Z,0.50
2022-08-05T12:08:59.733Z,0.30
2022-08-05T12:11:40.446Z,0.40
2022-08-05T12:14:10.275Z,0.50
2022-08-05T12:16:45.151Z,0.50
2022-08-05T12:20:25.443Z,0.32
2022-08-05T12:22:01.777Z,0.35
2022-08-05T12:24:30.138Z,0.20
2022-08-05T12:26:57.894Z,0.40
2022-08-05T12:29:27.753Z,0.30
2022-08-05T12:31:58.194Z,0.30
2022-08-05T12:34:36.910Z,0.63
2022-08-05T12:37:21.476Z,0.40
2022-08-05T12:39:53.799Z,0.60
2022-08-05T12:42:26.888Z,0.43
2022-08-05T12:45:02.433Z,0.50
2022-08-05T12:47:31.068Z,0.70
2022-08-05T12:50:04.561Z,0.85
2022-08-05T12:52:39.663Z,0.70
2022-08-05T12:55:26.966Z,0.55
2022-08-05T12:58:49.409Z,0.47
2022-08-05T13:02:01.797Z,0.25
2022-08-05T13:03:42.013Z,0.38
2022-08-05T13:06:19.755Z,0.68
2022-08-05T13:08:50.884Z,0.57
2022-08-05T13:12:02.957Z,0.60
2022-08-05T13:14:20.303Z,0.30
2022-08-05T13:16:58.986Z,0.52
2022-08-05T13:22:29.317Z,0.50
2022-08-05T13:25:00.848Z,0.60
2022-08-05T13:27:39.244Z,0.40
2022-08-05T13:30:36.045Z,0.38
2022-08-05T13:32:57.360Z,0.25
2022-08-05T13:35:43.008Z,0.40
2022-08-05T13:38:28.148Z,0.75
2022-08-05T13:41:01.814Z,0.57
2022-08-05T13:43:45.618Z,0.57
2022-08-05T13:46:30.656Z,0.22
2022-08-05T13:49:10.477Z,0.60
2022-08-05T13:51:46.503Z,0.70
2022-08-05T13:54:16.297Z,0.30
2022-08-05T13:56:51.560Z,0.43
2022-08-05T13:59:24.894Z,0.70
2022-08-05T14:04:49.422Z,0.80
2022-08-05T14:07:56.393Z,0.30
2022-08-05T14:10:12.825Z,0.73
2022-08-05T14:12:42.670Z,0.45
2022-08-05T14:16:08.431Z,0.50
2022-08-05T14:17:59.849Z,0.40
2022-08-05T14:20:29.901Z,0.40
2022-08-05T14:22:59.895Z,0.35
2022-08-05T14:25:28.565Z,0.85
2022-08-05T14:27:58.430Z,0.40
2022-08-05T14:30:29.958Z,0.70
2022-08-05T14:32:57.537Z,0.47
2022-08-05T14:35:36.942Z,0.70
2022-08-05T14:38:32.169Z,0.32
2022-08-05T14:41:07.441Z,0.40
2022-08-05T14:44:01.881Z,0.40
2022-08-05T14:46:28.753Z,0.60
2022-08-05T14:49:03.452Z,0.50
2022-08-05T14:51:38.893Z,0.40
2022-08-05T14:54:27.771Z,0.35
2022-08-05T14:56:58.753Z,0.52
2022-08-05T14:59:29.518Z,0.47
2022-08-05T15:02:24.358Z,0.80
2022-08-05T15:04:54.379Z,0.40
2022-08-05T15:08:11.503Z,0.90
2022-08-05T15:10:14.766Z,0.65
2022-08-05T15:13:00.195Z,0.68
2022-08-05T15:15:55.484Z,0.57
2022-08-05T15:18:15.366Z,0.98
2022-08-05T15:20:44.563Z,0.25
2022-08-05T15:23:13.460Z,0.60
2022-08-05T15:25:52.619Z,0.98
2022-08-05T15:28:27.401Z,0.55
2022-08-05T15:30:57.603Z,0.93
2022-08-05T15:33:56.442Z,0.52
2022-08-05T15:36:17.737Z,0.82
2022-08-05T15:40:41.048Z,0.60
2022-08-05T15:41:58.421Z,0.60
2022-08-05T15:44:32.342Z,0.60
2022-08-05T15:47:01.511Z,0.50
2022-08-05T15:49:53.644Z,0.55
2022-08-05T15:52:16.781Z,0.57
2022-08-05T15:54:57.413Z,0.43
2022-08-05T15:57:24.926Z,0.75
2022-08-05T15:59:57.892Z,0.50
2022-08-05T16:02:29.084Z,0.52
2022-08-05T16:04:57.279Z,1.35
2022-08-05T16:07:24.665Z,0.60
2022-08-05T16:09:57.958Z,0.32
2022-08-05T16:12:26.042Z,0.52
2022-08-05T16:14:53.351Z,1.00
2022-08-05T16:17:20.488Z,1.20
2022-08-05T16:20:04.525Z,0.57
2022-08-05T16:22:37.730Z,0.63
2022-08-05T16:25:09.688Z,0.80
2022-08-05T16:28:01.085Z,0.68
2022-08-05T16:30:28.747Z,0.43
2022-08-05T16:32:57.902Z,0.40
2022-08-05T16:35:32.500Z,0.68
2022-08-05T16:38:16.316Z,0.70
2022-08-05T16:40:55.145Z,0.70
2022-08-05T16:43:24.726Z,0.88
2022-08-05T16:46:07.828Z,0.60
2022-08-05T16:48:40.371Z,0.55
2022-08-05T16:51:09.998Z,0.90
2022-08-05T16:54:05.124Z,0.40
2022-08-05T16:56:30.464Z,0.57
2022-08-05T16:58:58.485Z,0.50
2022-08-05T17:01:27.348Z,1.02
2022-08-05T17:04:15.058Z,0.73
2022-08-05T17:06:42.279Z,0.80
2022-08-05T17:09:09.495Z,0.55
2022-08-05T17:11:46.050Z,0.60
2022-08-05T17:14:34.338Z,0.88
2022-08-05T17:17:05.756Z,1.00
2022-08-05T17:19:33.079Z,0.60
2022-08-05T17:22:02.235Z,0.50
2022-08-05T17:24:38.785Z,0.90
2022-08-05T17:27:09.510Z,0.52
2022-08-05T17:29:40.984Z,0.65
2022-08-05T17:32:11.687Z,1.05
2022-08-05T17:34:44.128Z,1.00
2022-08-05T17:37:36.026Z,0.85
2022-08-05T17:40:00.184Z,0.93
2022-08-05T17:42:32.041Z,0.50
2022-08-05T17:45:18.198Z,1.15
2022-08-05T17:47:53.417Z,0.82
2022-08-05T17:50:28.545Z,0.90
2022-08-05T17:53:02.607Z,0.90
2022-08-05T17:55:34.559Z,0.90
2022-08-05T17:58:12.506Z,0.90
2022-08-05T18:00:45.042Z,0.90
2022-08-05T18:03:39.344Z,0.90
2022-08-05T18:06:12.774Z,1.17
2022-08-05T18:08:52.165Z,0.98
2022-08-05T18:11:24.313Z,0.68
2022-08-05T18:14:03.253Z,0.85
2022-08-05T18:16:51.570Z,1.20
2022-08-05T18:19:23.076Z,0.60
2022-08-05T18:22:09.823Z,0.63
2022-08-05T18:24:39.523Z,0.70
2022-08-05T18:27:12.845Z,0.77
2022-08-05T18:29:53.613Z,0.55
2022-08-05T18:32:27.989Z,0.50
2022-08-05T18:34:57.360Z,1.35
2022-08-05T18:37:34.547Z,0.95
2022-08-05T18:40:33.668Z,0.80
2022-08-05T18:42:59.683Z,0.93
2022-08-05T18:45:41.247Z,1.48
2022-08-05T18:48:11.328Z,0.82
2022-08-05T18:51:01.884Z,1.15
2022-08-05T18:53:45.876Z,0.82
2022-08-05T18:56:17.667Z,1.20
2022-08-05T18:58:50.826Z,0.80
2022-08-05T19:01:20.674Z,1.02
2022-08-05T19:04:00.611Z,0.57
2022-08-05T19:06:37.363Z,1.00
2022-08-05T19:09:11.957Z,1.10
2022-08-05T19:11:59.941Z,0.88
2022-08-05T19:14:37.693Z,0.85
2022-08-05T19:17:20.888Z,0.82
2022-08-05T19:19:49.192Z,0.98
2022-08-05T19:22:19.223Z,0.77
2022-08-05T19:25:00.449Z,0.93
2022-08-05T19:27:30.388Z,0.98
2022-08-05T19:29:58.321Z,0.77
2022-08-05T19:32:26.503Z,1.02
2022-08-05T19:34:59.498Z,1.33
2022-08-05T19:38:04.175Z,0.70
2022-08-05T19:40:28.131Z,1.70
2022-08-05T19:43:04.707Z,1.38
2022-08-05T19:45:33.301Z,1.15
2022-08-05T19:48:06.416Z,0.80
2022-08-05T19:50:36.401Z,1.10
2022-08-05T19:53:09.391Z,1.02
2022-08-05T19:56:14.765Z,0.88
2022-08-05T19:58:29.766Z,1.30
2022-08-05T20:01:00.936Z,1.25
2022-08-05T20:03:40.823Z,0.70
2022-08-05T20:06:11.748Z,1.27
2022-08-05T20:11:18.137Z,0.75
2022-08-05T20:13:59.020Z,0.90
2022-08-05T20:16:34.532Z,1.00
2022-08-05T20:19:06.447Z,1.02
2022-08-05T20:21:38.361Z,1.25
2022-08-05T20:24:06.375Z,1.50
2022-08-05T20:26:34.770Z,1.17
2022-08-05T20:29:01.908Z,1.88
2022-08-05T20:31:42.153Z,1.27
2022-08-05T20:34:17.095Z,0.80
2022-08-05T20:36:44.483Z,1.08
2022-08-05T20:39:16.129Z,0.93
2022-08-05T20:41:45.452Z,1.45
2022-08-05T20:44:18.863Z,1.02
2022-08-05T20:47:01.675Z,1.02
2022-08-05T20:49:38.127Z,1.40
2022-08-05T20:52:12.600Z,1.13
2022-08-05T20:54:59.028Z,0.98
2022-08-05T20:57:43.832Z,1.25
2022-08-05T21:03:07.385Z,1.20
2022-08-05T21:05:47.901Z,0.95
2022-08-05T21:08:26.529Z,1.00
2022-08-05T21:11:00.519Z,0.90
2022-08-05T21:13:56.103Z,0.88
2022-08-05T21:16:19.371Z,1.33
2022-08-05T21:18:46.501Z,0.70
2022-08-05T21:21:16.062Z,1.40
2022-08-05T21:23:43.553Z,0.90
2022-08-05T21:26:14.276Z,1.33
2022-08-05T21:28:47.614Z,0.50
2022-08-05T21:31:18.510Z,0.75
2022-08-05T21:33:47.581Z,1.10
2022-08-05T21:36:19.086Z,1.02
2022-08-05T21:38:57.283Z,1.50
2022-08-05T21:41:33.680Z,1.25
2022-08-05T21:44:04.344Z,1.17
2022-08-05T21:46:37.431Z,1.17
2022-08-05T21:49:10.028Z,1.17
2022-08-05T21:52:22.459Z,1.50
2022-08-05T21:54:44.447Z,0.80
2022-08-05T21:57:34.801Z,1.48
2022-08-05T22:00:11.340Z,1.33
2022-08-05T22:02:38.938Z,1.00
2022-08-05T22:05:09.033Z,0.80
2022-08-05T22:07:54.265Z,1.42
2022-08-05T22:10:26.550Z,1.35
2022-08-05T22:14:05.298Z,0.75
2022-08-05T22:16:01.425Z,0.87
2022-08-05T22:18:39.058Z,1.40
2022-08-05T22:21:16.581Z,0.93
2022-08-05T22:24:09.023Z,0.93
2022-08-05T22:26:59.312Z,1.02
2022-08-05T22:29:30.712Z,0.65
2022-08-05T22:32:02.926Z,1.40
2022-08-05T22:34:31.734Z,1.13
2022-08-05T22:36:59.447Z,1.88
2022-08-05T22:39:33.081Z,1.20
2022-08-05T22:42:09.810Z,1.08
2022-08-05T22:44:48.207Z,1.20
2022-08-05T22:47:29.423Z,1.55
2022-08-05T22:50:19.446Z,1.10
2022-08-05T22:52:49.788Z,1.30
2022-08-05T22:55:21.287Z,2.03
2022-08-05T22:57:53.795Z,1.30
2022-08-05T23:02:53.570Z,0.95
2022-08-05T23:05:22.603Z,1.30
2022-08-05T23:07:50.836Z,1.00
2022-08-05T23:10:20.855Z,1.20
2022-08-05T23:12:54.744Z,1.57
2022-08-05T23:15:35.353Z,1.02
2022-08-05T23:18:06.045Z,0.98
2022-08-05T23:20:39.962Z,1.10
2022-08-05T23:23:10.253Z,1.75
2022-08-05T23:25:52.568Z,0.88
2022-08-05T23:28:30.962Z,1.42
2022-08-05T23:31:07.042Z,0.98
2022-08-05T23:34:04.982Z,1.55
2022-08-05T23:36:38.608Z,1.23
2022-08-05T23:39:07.804Z,1.08
2022-08-05T23:41:41.054Z,1.10
2022-08-05T23:44:16.715Z,1.33
2022-08-05T23:46:44.099Z,1.35
2022-08-05T23:49:17.033Z,1.13
2022-08-05T23:52:08.280Z,1.15
2022-08-05T23:54:38.585Z,1.65
2022-08-05T23:57:09.007Z,1.15
